Time;durP1;ratioP1;P1;durP2;ratioP2;P2;SDS_P1;SDS_P2;PMS_P1;PMS_P2;Temp;Humidity;BMP_temperature;BMP_pressure;BME280_temperature;BME280_humidity;BME280_pressure;Samples;Min_cycle;Max_cycle;Signal;HPM_P1;HPM_P2
2021/10/11 00:00:06;;;;;;;7.00;1.73;;;11.80;99.90;;;;;;4957542;29;20050;-69
2021/10/11 00:02:32;;;;;;;4.68;1.88;;;11.80;99.90;;;;;;4957307;29;20039;-70
2021/10/11 00:04:58;;;;;;;2.13;1.70;;;11.80;99.90;;;;;;4957874;29;20057;-69
2021/10/11 00:07:24;;;;;;;2.47;1.75;;;11.70;99.90;;;;;;4957378;29;20031;-73
2021/10/11 00:09:50;;;;;;;1.88;1.70;;;11.80;99.90;;;;;;4957704;29;20038;-69
2021/10/11 00:12:19;;;;;;;2.53;1.70;;;11.80;99.90;;;;;;4957688;29;20283;-71
2021/10/11 00:14:45;;;;;;;3.25;1.83;;;11.80;99.90;;;;;;4957508;28;20047;-71
2021/10/11 00:17:10;;;;;;;2.22;1.92;;;11.80;99.90;;;;;;4957573;29;20090;-69
2021/10/11 00:19:37;;;;;;;3.58;1.92;;;11.80;99.90;;;;;;4957492;28;20043;-70
2021/10/11 00:22:03;;;;;;;5.05;2.38;;;11.80;99.90;;;;;;4956956;29;20452;-70
2021/10/11 00:24:29;;;;;;;1.90;1.70;;;11.80;99.90;;;;;;4957005;29;20463;-71
2021/10/11 00:26:55;;;;;;;2.58;2.20;;;11.80;99.90;;;;;;4956886;29;20035;-69
2021/10/11 00:29:20;;;;;;;5.85;1.90;;;11.80;99.90;;;;;;4956899;29;20042;-69
2021/10/11 00:31:46;;;;;;;2.53;2.00;;;11.80;99.90;;;;;;4956568;29;20423;-71
2021/10/11 00:34:12;;;;;;;2.17;1.88;;;11.80;99.90;;;;;;4940013;29;20043;-70
2021/10/11 00:36:37;;;;;;;3.75;1.95;;;11.80;99.90;;;;;;4956900;29;20023;-70
2021/10/11 00:39:03;;;;;;;3.05;2.03;;;11.80;99.90;;;;;;4956729;29;20931;-70
2021/10/11 00:41:31;;;;;;;4.25;2.33;;;11.80;99.90;;;;;;4956395;29;20041;-70
2021/10/11 00:44:01;;;;;;;3.25;2.08;;;11.90;99.90;;;;;;4956380;29;20538;-70
2021/10/11 00:46:27;;;;;;;3.33;2.03;;;11.90;99.90;;;;;;4957091;29;20027;-70
2021/10/11 00:48:53;;;;;;;2.20;1.90;;;12.00;99.90;;;;;;4939231;29;20150;-70
2021/10/11 00:51:19;;;;;;;2.08;1.83;;;12.00;99.90;;;;;;4939760;29;20031;-69
2021/10/11 00:53:45;;;;;;;2.33;1.80;;;12.10;99.90;;;;;;4939898;29;20043;-69
2021/10/11 00:56:10;;;;;;;3.08;1.83;;;12.10;99.90;;;;;;4957089;29;20369;-69
2021/10/11 00:58:36;;;;;;;1.85;1.60;;;12.10;99.90;;;;;;4956490;28;20050;-69
2021/10/11 01:01:02;;;;;;;1.40;1.30;;;12.10;99.90;;;;;;4956507;29;20094;-68
2021/10/11 01:03:28;;;;;;;3.55;1.80;;;12.20;99.90;;;;;;4956791;29;20102;-70
2021/10/11 01:05:54;;;;;;;1.98;1.60;;;12.30;99.90;;;;;;4956510;29;20381;-70
2021/10/11 01:08:20;;;;;;;2.55;1.95;;;12.30;99.90;;;;;;4956530;29;20028;-70
2021/10/11 01:10:47;;;;;;;2.90;1.90;;;12.30;99.90;;;;;;4956392;29;20492;-70
2021/10/11 01:13:14;;;;;;;2.85;2.08;;;12.30;99.90;;;;;;4955613;29;20493;-71
2021/10/11 01:15:40;;;;;;;3.03;1.85;;;12.40;99.90;;;;;;4956351;29;20114;-69
2021/10/11 01:18:05;;;;;;;3.03;1.90;;;12.40;99.90;;;;;;4939007;29;20122;-69
2021/10/11 01:20:31;;;;;;;2.30;1.88;;;12.40;99.90;;;;;;4956173;29;20091;-70
2021/10/11 01:22:57;;;;;;;2.88;2.42;;;12.40;99.90;;;;;;4938663;29;20547;-72
2021/10/11 01:25:23;;;;;;;3.13;2.67;;;12.40;99.90;;;;;;4955985;29;20066;-71
2021/10/11 01:27:48;;;;;;;4.63;2.20;;;12.40;99.90;;;;;;4956370;29;20039;-70
2021/10/11 01:30:15;;;;;;;4.00;2.47;;;12.40;99.90;;;;;;4956025;29;20039;-70
2021/10/11 01:32:46;;;;;;;2.70;2.22;;;12.40;99.90;;;;;;4955336;29;20039;-70
2021/10/11 01:35:14;;;;;;;2.60;2.25;;;12.40;99.90;;;;;;4955831;29;20072;-69
2021/10/11 01:37:42;;;;;;;4.25;2.90;;;12.30;99.90;;;;;;4955713;29;20362;-71
2021/10/11 01:40:08;;;;;;;2.70;2.33;;;12.30;99.90;;;;;;4955605;29;22053;-69
2021/10/11 01:42:34;;;;;;;2.50;2.20;;;12.30;99.90;;;;;;4954981;29;20039;-69
2021/10/11 01:45:00;;;;;;;4.57;2.58;;;12.30;99.90;;;;;;4954985;29;20035;-72
2021/10/11 01:47:27;;;;;;;3.85;2.40;;;12.30;99.90;;;;;;4954661;29;20031;-69
2021/10/11 01:49:53;;;;;;;4.95;2.25;;;12.30;99.90;;;;;;4954479;29;20468;-72
2021/10/11 01:52:19;;;;;;;4.63;2.65;;;12.30;99.90;;;;;;4954326;29;20035;-73
2021/10/11 01:54:45;;;;;;;7.03;2.47;;;12.30;99.90;;;;;;4954426;29;20031;-70
2021/10/11 01:57:12;;;;;;;3.75;2.45;;;12.40;99.90;;;;;;4954513;29;20039;-70
2021/10/11 01:59:38;;;;;;;2.72;2.00;;;12.40;99.90;;;;;;4954845;29;20035;-69
2021/10/11 02:02:04;;;;;;;6.80;2.20;;;12.40;99.90;;;;;;4955894;29;20114;-70
2021/10/11 02:04:30;;;;;;;4.97;2.53;;;12.40;99.90;;;;;;4938816;29;20060;-70
2021/10/11 02:06:57;;;;;;;2.45;2.13;;;12.40;99.90;;;;;;4955513;29;20039;-69
2021/10/11 02:09:24;;;;;;;3.08;2.47;;;12.40;99.90;;;;;;4954800;28;20051;-70
2021/10/11 02:11:50;;;;;;;4.80;2.38;;;12.40;99.90;;;;;;4955291;29;20132;-70
2021/10/11 02:14:16;;;;;;;2.88;2.30;;;12.40;99.90;;;;;;4954466;28;20060;-71
2021/10/11 02:16:42;;;;;;;5.13;2.33;;;12.40;99.90;;;;;;4953775;29;20043;-70
2021/10/11 02:19:08;;;;;;;2.78;2.35;;;12.50;99.90;;;;;;4954942;29;20035;-71
2021/10/11 02:21:34;;;;;;;3.53;2.50;;;12.40;99.90;;;;;;4955032;29;20106;-69
2021/10/11 02:24:00;;;;;;;2.65;2.35;;;12.50;99.90;;;;;;4954461;29;20048;-70
2021/10/11 02:26:26;;;;;;;3.53;2.38;;;12.40;99.90;;;;;;4955216;28;20065;-70
2021/10/11 02:28:52;;;;;;;6.22;2.92;;;12.40;99.90;;;;;;4955252;29;20404;-70
2021/10/11 02:31:18;;;;;;;2.60;2.35;;;12.40;99.90;;;;;;4954701;29;20115;-71
2021/10/11 02:33:44;;;;;;;4.53;2.55;;;12.40;99.90;;;;;;4953538;29;20054;-69
2021/10/11 02:36:11;;;;;;;5.65;2.95;;;12.40;99.90;;;;;;4954377;29;20035;-70
2021/10/11 02:38:37;;;;;;;4.28;2.90;;;12.40;99.90;;;;;;4954807;29;20118;-70
2021/10/11 02:41:03;;;;;;;5.68;3.20;;;12.40;99.90;;;;;;4954594;29;20027;-70
2021/10/11 02:43:29;;;;;;;7.13;3.40;;;12.40;99.90;;;;;;4954457;29;20039;-71
2021/10/11 02:45:55;;;;;;;5.45;2.92;;;12.40;99.90;;;;;;4954163;29;20159;-69
2021/10/11 02:48:20;;;;;;;5.75;3.42;;;12.40;99.90;;;;;;4954523;29;20028;-70
2021/10/11 02:50:46;;;;;;;5.55;3.58;;;12.30;99.90;;;;;;4954073;28;20035;-71
2021/10/11 02:53:12;;;;;;;5.88;3.95;;;12.30;99.90;;;;;;4954412;29;20054;-69
2021/10/11 02:55:38;;;;;;;7.03;3.28;;;12.30;99.90;;;;;;4953571;29;20122;-70
2021/10/11 02:58:03;;;;;;;7.35;3.47;;;12.40;99.90;;;;;;4953956;28;20047;-71
2021/10/11 03:00:29;;;;;;;4.85;3.45;;;12.40;99.90;;;;;;4954349;29;20050;-69
2021/10/11 03:02:55;;;;;;;3.92;3.08;;;12.50;99.90;;;;;;4954500;29;20039;-72
2021/10/11 03:05:20;;;;;;;8.35;4.03;;;12.50;99.90;;;;;;4954531;29;20118;-73
2021/10/11 03:07:46;;;;;;;5.97;3.58;;;12.40;99.90;;;;;;4954129;29;20036;-70
2021/10/11 03:10:12;;;;;;;6.72;3.42;;;12.40;99.90;;;;;;4954315;29;20484;-70
2021/10/11 03:12:39;;;;;;;7.03;4.28;;;12.50;99.90;;;;;;4954271;29;20043;-69
2021/10/11 03:15:06;;;;;;;7.82;3.80;;;12.40;99.90;;;;;;4953112;29;20040;-69
2021/10/11 03:17:32;;;;;;;9.95;3.70;;;12.50;99.90;;;;;;4953578;29;20042;-70
2021/10/11 03:19:58;;;;;;;6.10;3.85;;;12.50;99.90;;;;;;4953483;29;20115;-70
2021/10/11 03:22:23;;;;;;;9.20;4.05;;;12.40;99.90;;;;;;4953463;28;20110;-69
2021/10/11 03:24:49;;;;;;;8.85;3.80;;;12.40;99.90;;;;;;4954032;29;20048;-70
2021/10/11 03:27:15;;;;;;;11.25;4.55;;;12.50;99.90;;;;;;4954496;29;20055;-71
2021/10/11 03:29:40;;;;;;;4.47;3.75;;;12.40;99.90;;;;;;4953768;29;20032;-71
2021/10/11 03:32:06;;;;;;;14.50;4.78;;;12.40;99.90;;;;;;4954304;29;20094;-70
2021/10/11 03:34:32;;;;;;;10.20;3.70;;;12.40;99.90;;;;;;4954041;29;20496;-69
2021/10/11 03:36:58;;;;;;;5.80;3.90;;;12.50;99.90;;;;;;4953594;29;20768;-69
2021/10/11 03:39:23;;;;;;;15.60;4.78;;;12.40;99.90;;;;;;4953809;29;20043;-69
2021/10/11 03:41:49;;;;;;;10.02;4.93;;;12.40;99.90;;;;;;4953694;29;20396;-69
2021/10/11 03:44:15;;;;;;;7.68;4.25;;;12.40;99.90;;;;;;4953780;29;20118;-69
2021/10/11 03:46:41;;;;;;;7.75;4.47;;;12.40;99.90;;;;;;4954080;29;20043;-70
2021/10/11 03:49:06;;;;;;;7.65;5.05;;;12.40;99.90;;;;;;4954149;29;20038;-69
2021/10/11 03:51:32;;;;;;;9.75;5.53;;;12.40;99.90;;;;;;4954419;29;20042;-70
2021/10/11 03:53:58;;;;;;;8.23;4.55;;;12.40;99.90;;;;;;4953439;29;20126;-70
2021/10/11 03:56:24;;;;;;;6.68;4.25;;;12.40;99.90;;;;;;4954291;29;20111;-70
2021/10/11 03:58:50;;;;;;;7.28;4.80;;;12.40;99.90;;;;;;4953357;29;20415;-71
2021/10/11 04:01:15;;;;;;;9.35;4.50;;;12.40;99.90;;;;;;4953662;29;20441;-70
2021/10/11 04:03:42;;;;;;;8.98;5.10;;;12.40;99.90;;;;;;4953850;29;20043;-69
2021/10/11 04:06:08;;;;;;;12.68;5.65;;;12.40;99.90;;;;;;4953817;29;20091;-68
2021/10/11 04:08:40;;;;;;;11.85;5.50;;;12.40;99.90;;;;;;4953281;29;20099;-70
2021/10/11 04:11:21;;;;;;;8.30;4.97;;;12.40;99.90;;;;;;4953677;29;20034;-69
2021/10/11 04:13:47;;;;;;;9.80;5.50;;;12.40;99.90;;;;;;4953860;29;20428;-70
2021/10/11 04:16:13;;;;;;;6.85;4.65;;;12.40;99.90;;;;;;4953340;29;20027;-70
2021/10/11 04:18:41;;;;;;;7.68;5.03;;;12.40;99.90;;;;;;4953227;29;20039;-70
2021/10/11 04:21:07;;;;;;;11.95;5.63;;;12.40;99.90;;;;;;4953062;29;20051;-70
2021/10/11 04:23:33;;;;;;;11.27;5.32;;;12.40;99.90;;;;;;4953195;29;20031;-70
2021/10/11 04:25:59;;;;;;;6.20;4.82;;;12.40;99.90;;;;;;4952729;29;20101;-69
2021/10/11 04:28:25;;;;;;;8.52;4.93;;;12.50;99.90;;;;;;4953214;29;20556;-71
2021/10/11 04:30:51;;;;;;;10.35;4.95;;;12.40;99.90;;;;;;4935800;29;20031;-70
2021/10/11 04:33:17;;;;;;;18.17;5.32;;;12.40;99.90;;;;;;4953327;28;20043;-69
2021/10/11 04:35:48;;;;;;;9.52;5.45;;;12.50;99.90;;;;;;4956731;29;20057;-69
2021/10/11 04:38:13;;;;;;;13.90;5.82;;;12.50;99.90;;;;;;4956638;29;20031;-70
2021/10/11 04:40:39;;;;;;;8.75;5.10;;;12.50;99.90;;;;;;4933178;29;20058;-70
2021/10/11 04:43:05;;;;;;;14.45;6.20;;;12.40;99.90;;;;;;4954285;29;20105;-70
2021/10/11 04:45:31;;;;;;;9.95;5.25;;;12.40;99.90;;;;;;4956821;29;20369;-69
2021/10/11 04:48:06;;;;;;;12.25;6.30;;;12.40;99.90;;;;;;4956528;29;20031;-70
2021/10/11 04:50:33;;;;;;;8.93;5.57;;;12.50;99.90;;;;;;4957381;29;20436;-69
2021/10/11 04:53:00;;;;;;;10.50;5.72;;;12.50;99.90;;;;;;4956700;29;20115;-74
2021/10/11 04:55:26;;;;;;;7.93;5.90;;;12.50;99.90;;;;;;4955827;29;20057;-71
2021/10/11 04:57:52;;;;;;;14.63;6.40;;;12.50;99.90;;;;;;4956591;29;20130;-70
2021/10/11 05:00:19;;;;;;;10.10;5.57;;;12.50;99.90;;;;;;4955919;29;20068;-70
2021/10/11 05:02:45;;;;;;;13.57;6.32;;;12.50;99.90;;;;;;4956153;29;20039;-70
2021/10/11 05:05:11;;;;;;;12.85;6.07;;;12.60;99.90;;;;;;4956193;29;20094;-70
2021/10/11 05:07:37;;;;;;;15.50;5.25;;;12.50;99.90;;;;;;4956285;29;20034;-70
2021/10/11 05:10:03;;;;;;;38.50;9.27;;;12.50;99.90;;;;;;4956401;29;20110;-71
2021/10/11 05:12:29;;;;;;;14.25;5.82;;;12.50;99.90;;;;;;4955901;29;20027;-75
2021/10/11 05:14:55;;;;;;;11.70;6.00;;;12.50;99.90;;;;;;4938643;29;20510;-69
2021/10/11 05:17:20;;;;;;;10.88;5.53;;;12.50;99.90;;;;;;4956114;29;20031;-70
2021/10/11 05:19:46;;;;;;;12.63;6.55;;;12.50;99.90;;;;;;4938745;29;20032;-70
2021/10/11 05:22:12;;;;;;;18.25;5.53;;;12.60;99.90;;;;;;4938370;29;20023;-69
2021/10/11 05:24:37;;;;;;;9.05;5.57;;;12.60;99.90;;;;;;4954633;29;20031;-69
2021/10/11 05:27:03;;;;;;;12.50;6.20;;;12.60;99.90;;;;;;4956240;29;20027;-69
2021/10/11 05:29:29;;;;;;;16.30;6.22;;;12.60;99.90;;;;;;4955759;29;20031;-69
2021/10/11 05:31:55;;;;;;;13.82;6.20;;;12.60;99.90;;;;;;4955624;29;20067;-70
2021/10/11 05:34:21;;;;;;;14.13;6.93;;;12.60;99.90;;;;;;4954887;29;20481;-70
2021/10/11 05:36:46;;;;;;;21.33;6.20;;;12.70;99.90;;;;;;4955065;29;20035;-69
2021/10/11 05:39:12;;;;;;;12.43;6.28;;;12.70;99.90;;;;;;4954631;29;20031;-70
2021/10/11 05:41:38;;;;;;;12.90;6.72;;;12.70;99.90;;;;;;4954675;29;20106;-69
2021/10/11 05:44:04;;;;;;;26.08;6.65;;;12.80;99.90;;;;;;4952376;28;20170;-69
2021/10/11 05:46:30;;;;;;;12.85;6.00;;;12.90;99.90;;;;;;4951897;29;20130;-71
2021/10/11 05:48:56;;;;;;;12.23;6.50;;;13.20;99.90;;;;;;4952744;29;20047;-70
2021/10/11 05:51:21;;;;;;;19.25;6.85;;;13.50;99.90;;;;;;4954629;29;20034;-70
2021/10/11 05:53:47;;;;;;;12.27;6.30;;;13.70;99.90;;;;;;4953608;29;20138;-70
2021/10/11 05:56:13;;;;;;;14.52;5.28;;;13.60;99.90;;;;;;4936481;29;20054;-70
2021/10/11 05:58:38;;;;;;;12.90;6.30;;;13.50;99.90;;;;;;4954261;29;20397;-70
2021/10/11 06:01:04;;;;;;;11.38;6.05;;;13.40;99.90;;;;;;4954934;29;20035;-69
2021/10/11 06:03:30;;;;;;;15.40;6.40;;;13.30;99.90;;;;;;4954692;29;20066;-71
2021/10/11 06:05:56;;;;;;;10.38;5.82;;;13.30;99.90;;;;;;4954326;29;20058;-69
2021/10/11 06:08:21;;;;;;;12.88;6.05;;;13.20;99.90;;;;;;4954041;29;20031;-71
2021/10/11 06:10:47;;;;;;;12.80;6.13;;;13.20;99.90;;;;;;4954087;29;20039;-70
2021/10/11 06:13:13;;;;;;;15.25;6.57;;;13.20;99.90;;;;;;4954461;29;20053;-70
2021/10/11 06:15:39;;;;;;;10.18;5.18;;;13.20;99.90;;;;;;4954319;29;20035;-69
2021/10/11 06:18:05;;;;;;;16.73;7.07;;;13.20;99.90;;;;;;4954518;29;20109;-70
2021/10/11 06:20:31;;;;;;;13.73;6.93;;;13.20;99.90;;;;;;4954377;29;20039;-69
2021/10/11 06:22:56;;;;;;;14.85;6.45;;;13.30;99.90;;;;;;4954585;29;20039;-70
2021/10/11 06:25:23;;;;;;;14.50;7.18;;;13.30;99.90;;;;;;4954925;29;20090;-70
2021/10/11 06:27:48;;;;;;;14.30;6.18;;;13.30;99.90;;;;;;4954324;29;20110;-71
2021/10/11 06:30:14;;;;;;;12.77;6.00;;;13.20;99.90;;;;;;4954158;29;20143;-69
2021/10/11 06:32:40;;;;;;;21.65;6.18;;;13.30;99.90;;;;;;4954467;29;20086;-70
2021/10/11 06:35:07;;;;;;;16.27;6.47;;;13.30;99.90;;;;;;4954422;29;20071;-71
2021/10/11 06:37:33;;;;;;;14.80;6.28;;;13.30;99.90;;;;;;4954524;29;20115;-69
2021/10/11 06:39:58;;;;;;;20.52;6.07;;;13.30;99.90;;;;;;4953984;29;20435;-73
2021/10/11 06:42:24;;;;;;;14.73;6.82;;;13.30;99.90;;;;;;4954947;29;20515;-69
2021/10/11 06:44:50;;;;;;;8.75;5.72;;;13.30;99.90;;;;;;4955187;29;20078;-69
2021/10/11 06:47:15;;;;;;;13.70;6.20;;;13.40;99.90;;;;;;4955334;29;20028;-70
2021/10/11 06:49:42;;;;;;;18.65;6.60;;;13.40;99.90;;;;;;4954737;29;20539;-69
2021/10/11 06:52:08;;;;;;;15.48;6.45;;;13.40;99.90;;;;;;4954415;28;20521;-68
2021/10/11 06:54:34;;;;;;;13.57;5.32;;;13.40;99.90;;;;;;4954208;29;20079;-69
2021/10/11 06:56:59;;;;;;;17.48;6.85;;;13.40;99.90;;;;;;4954192;28;20485;-69
2021/10/11 06:59:25;;;;;;;14.77;6.35;;;13.40;99.90;;;;;;4953999;29;20130;-69
2021/10/11 07:01:51;;;;;;;16.73;6.45;;;13.40;99.90;;;;;;4954631;29;20484;-70
2021/10/11 07:04:16;;;;;;;21.00;7.00;;;13.50;99.90;;;;;;4954289;29;20023;-73
2021/10/11 07:06:42;;;;;;;11.25;5.93;;;13.50;99.90;;;;;;4954311;29;20038;-69
2021/10/11 07:09:08;;;;;;;23.85;7.07;;;13.50;99.90;;;;;;4953840;29;20030;-68
2021/10/11 07:11:34;;;;;;;21.77;7.07;;;13.50;99.90;;;;;;4953844;29;20043;-70
2021/10/11 07:14:00;;;;;;;25.63;7.15;;;13.50;99.90;;;;;;4953544;29;20043;-70
2021/10/11 07:16:26;;;;;;;15.88;6.55;;;13.50;99.90;;;;;;4953885;29;20388;-71
2021/10/11 07:18:51;;;;;;;13.75;7.00;;;13.60;99.90;;;;;;4954534;29;20099;-70
2021/10/11 07:21:17;;;;;;;11.10;5.63;;;13.60;99.90;;;;;;4937827;29;20032;-69
2021/10/11 07:23:43;;;;;;;15.70;5.85;;;13.60;99.90;;;;;;4955447;29;20059;-70
2021/10/11 07:26:08;;;;;;;20.88;6.45;;;13.60;99.90;;;;;;4954882;29;20453;-72
2021/10/11 07:28:35;;;;;;;17.00;6.53;;;13.70;99.90;;;;;;4954458;29;20027;-70
2021/10/11 07:31:01;;;;;;;12.07;5.80;;;13.80;99.90;;;;;;4954654;29;20027;-70
2021/10/11 07:33:26;;;;;;;16.42;5.57;;;13.70;99.90;;;;;;4954511;29;20038;-72
2021/10/11 07:35:53;;;;;;;13.63;6.38;;;13.80;99.90;;;;;;4954452;29;20035;-70
2021/10/11 07:38:19;;;;;;;16.70;6.45;;;13.70;99.90;;;;;;4954086;29;20457;-72
2021/10/11 07:40:45;;;;;;;9.77;5.38;;;13.80;99.90;;;;;;4954369;29;20043;-72
2021/10/11 07:43:11;;;;;;;17.05;5.97;;;13.80;99.90;;;;;;4953987;29;20097;-71
2021/10/11 07:45:37;;;;;;;10.68;5.22;;;13.80;99.90;;;;;;4953840;28;20038;-71
2021/10/11 07:48:03;;;;;;;21.23;6.90;;;13.80;99.90;;;;;;4954032;29;20023;-72
2021/10/11 07:50:29;;;;;;;13.38;5.65;;;13.80;99.90;;;;;;4953411;29;20039;-72
2021/10/11 07:52:55;;;;;;;18.48;6.30;;;13.80;99.90;;;;;;4954138;29;20086;-72
2021/10/11 07:55:21;;;;;;;14.43;6.47;;;13.90;99.90;;;;;;4954239;29;20499;-71
2021/10/11 07:57:47;;;;;;;12.00;5.93;;;13.90;99.90;;;;;;4953918;29;20471;-73
2021/10/11 08:00:16;;;;;;;13.50;6.50;;;13.90;99.90;;;;;;4953852;29;20032;-73
2021/10/11 08:02:43;;;;;;;19.40;6.10;;;14.00;99.90;;;;;;4947115;29;20023;-74
2021/10/11 08:05:09;;;;;;;17.75;6.68;;;13.90;99.90;;;;;;4954131;29;20391;-72
2021/10/11 08:07:35;;;;;;;15.90;6.43;;;14.00;99.90;;;;;;4954264;28;20031;-72
2021/10/11 08:10:01;;;;;;;13.13;6.43;;;14.00;99.90;;;;;;4957573;29;20098;-71
2021/10/11 08:12:27;;;;;;;11.88;5.45;;;14.00;99.90;;;;;;4958061;29;20035;-71
2021/10/11 08:14:53;;;;;;;10.68;5.90;;;14.00;99.90;;;;;;4957362;29;20504;-73
2021/10/11 08:17:18;;;;;;;12.43;5.70;;;14.10;99.90;;;;;;4956875;29;20046;-73
2021/10/11 08:19:44;;;;;;;14.43;6.18;;;14.10;99.90;;;;;;4954440;28;20388;-72
2021/10/11 08:22:10;;;;;;;17.98;6.47;;;14.10;99.90;;;;;;4957270;28;20027;-70
2021/10/11 08:24:36;;;;;;;12.10;5.95;;;14.20;99.90;;;;;;4939604;29;20377;-71
2021/10/11 08:27:01;;;;;;;13.32;5.80;;;14.30;99.90;;;;;;4957131;29;20040;-71
2021/10/11 08:29:27;;;;;;;14.63;5.97;;;14.30;99.90;;;;;;4955973;29;20070;-71
2021/10/11 08:31:53;;;;;;;16.20;5.65;;;14.30;99.90;;;;;;4938593;29;20035;-74
2021/10/11 08:34:20;;;;;;;12.02;5.53;;;14.40;99.90;;;;;;4956679;29;20127;-71
2021/10/11 08:36:45;;;;;;;9.95;5.85;;;14.40;99.90;;;;;;4956843;29;20036;-71
2021/10/11 08:39:11;;;;;;;13.80;6.18;;;14.40;99.90;;;;;;4956130;29;20034;-71
2021/10/11 08:41:38;;;;;;;16.17;6.47;;;14.50;99.90;;;;;;4957096;29;20464;-71
2021/10/11 08:44:03;;;;;;;15.43;6.72;;;14.50;99.90;;;;;;4956663;29;20117;-72
2021/10/11 08:46:29;;;;;;;9.88;5.88;;;14.50;99.90;;;;;;4956508;29;20129;-71
2021/10/11 08:48:55;;;;;;;8.80;5.53;;;14.50;99.90;;;;;;4939158;29;20122;-73
2021/10/11 08:51:21;;;;;;;19.98;5.15;;;14.60;99.90;;;;;;4955629;29;20555;-70
2021/10/11 08:53:46;;;;;;;12.65;5.88;;;14.70;99.90;;;;;;4955932;29;20400;-71
2021/10/11 08:56:13;;;;;;;8.93;5.20;;;15.00;99.90;;;;;;4956127;29;20042;-71
2021/10/11 08:58:47;;;;;;;17.02;5.40;;;15.50;99.90;;;;;;4954101;29;20050;-72
2021/10/11 09:01:13;;;;;;;17.73;5.97;;;15.90;99.90;;;;;;4955622;29;20361;-72
2021/10/11 09:03:39;;;;;;;11.23;5.57;;;15.80;99.90;;;;;;4954444;29;20038;-73
2021/10/11 09:06:10;;;;;;;12.95;5.60;;;15.60;99.90;;;;;;4953274;29;20416;-71
2021/10/11 09:08:37;;;;;;;14.45;5.78;;;15.50;99.90;;;;;;4953671;29;20031;-72
2021/10/11 09:11:09;;;;;;;12.65;5.47;;;15.30;99.90;;;;;;4954728;29;20038;-72
2021/10/11 09:13:46;;;;;;;13.25;5.63;;;15.30;99.90;;;;;;4954056;29;20054;-73
2021/10/11 09:19:10;;;;;;;20.08;5.43;;;15.50;99.90;;;;;;4949099;28;20027;-71
2021/10/11 09:21:37;;;;;;;7.38;4.70;;;15.70;99.90;;;;;;4956142;29;20042;-73
2021/10/11 09:24:14;;;;;;;15.07;4.97;;;15.90;99.90;;;;;;4955566;29;20031;-71
2021/10/11 09:26:49;;;;;;;8.75;4.68;;;15.80;99.90;;;;;;4938217;29;20107;-71
2021/10/11 09:29:26;;;;;;;10.25;4.60;;;15.70;99.90;;;;;;4955822;29;20027;-71
2021/10/11 09:31:52;;;;;;;14.40;5.63;;;15.60;99.90;;;;;;4956279;29;20062;-71
2021/10/11 09:34:19;;;;;;;10.77;5.32;;;15.60;99.90;;;;;;4954566;29;20142;-71
2021/10/11 09:37:02;;;;;;;13.45;5.07;;;15.50;99.90;;;;;;4956465;29;20115;-71
2021/10/11 09:39:30;;;;;;;12.75;5.30;;;15.50;99.90;;;;;;4955396;29;20023;-71
2021/10/11 09:41:58;;;;;;;11.60;4.85;;;15.60;99.90;;;;;;4955602;29;20074;-70
2021/10/11 09:44:24;;;;;;;11.07;5.22;;;15.60;99.90;;;;;;4951961;29;20031;-71
2021/10/11 09:47:08;;;;;;;11.60;5.00;;;15.60;99.90;;;;;;4955626;29;20436;-71
2021/10/11 09:49:34;;;;;;;12.88;5.28;;;15.60;99.90;;;;;;4934309;29;20036;-71
2021/10/11 09:52:00;;;;;;;10.90;5.68;;;15.50;99.90;;;;;;4955199;29;20051;-72
2021/10/11 09:54:26;;;;;;;10.43;5.65;;;15.50;99.90;;;;;;4937945;29;20467;-74
2021/10/11 09:56:52;;;;;;;10.45;5.38;;;15.40;99.90;;;;;;4955152;29;20107;-72
2021/10/11 09:59:18;;;;;;;15.57;6.13;;;15.40;99.90;;;;;;4955193;29;20122;-72
2021/10/11 10:01:46;;;;;;;18.65;5.40;;;15.30;99.90;;;;;;4938068;29;20049;-73
2021/10/11 10:04:26;;;;;;;16.45;6.28;;;15.40;99.90;;;;;;4955366;29;20035;-71
2021/10/11 10:06:55;;;;;;;9.98;5.50;;;15.50;99.90;;;;;;4954765;29;20038;-72
2021/10/11 10:09:23;;;;;;;8.95;4.93;;;15.70;99.90;;;;;;4954371;29;20102;-72
2021/10/11 10:11:50;;;;;;;11.88;5.47;;;15.90;99.90;;;;;;4955201;29;20027;-72
2021/10/11 10:14:23;;;;;;;13.23;5.60;;;15.90;99.90;;;;;;4937338;29;20480;-72
2021/10/11 10:16:50;;;;;;;13.82;5.20;;;16.00;99.90;;;;;;4954644;29;20036;-71
2021/10/11 10:19:16;;;;;;;16.27;5.25;;;15.90;99.90;;;;;;4953843;29;20041;-73
2021/10/11 10:21:42;;;;;;;17.20;6.70;;;15.90;99.90;;;;;;4954796;29;20050;-72
2021/10/11 10:24:08;;;;;;;13.10;5.50;;;15.90;99.90;;;;;;4937244;29;20125;-72
2021/10/11 10:26:35;;;;;;;15.73;6.45;;;15.90;99.90;;;;;;4936292;29;20041;-71
2021/10/11 10:29:43;;;;;;;13.77;5.88;;;16.00;99.90;;;;;;4954057;29;20122;-72
2021/10/11 10:32:10;;;;;;;13.13;5.35;;;16.00;99.90;;;;;;4942306;29;20035;-75
2021/10/11 10:34:36;;;;;;;15.75;5.70;;;16.30;99.90;;;;;;4953485;29;20039;-73
2021/10/11 10:37:10;;;;;;;11.05;5.45;;;16.60;99.90;;;;;;4951562;29;20573;-72
2021/10/11 10:39:41;;;;;;;18.27;5.57;;;17.00;99.90;;;;;;4951127;29;20030;-74
2021/10/11 10:42:09;;;;;;;10.20;5.18;;;17.30;99.90;;;;;;4953326;29;20034;-72
2021/10/11 10:44:44;;;;;;;15.55;5.07;;;17.60;99.90;;;;;;4936631;29;20027;-73
2021/10/11 10:47:10;;;;;;;10.80;5.60;;;17.80;99.90;;;;;;4953499;29;20035;-73
2021/10/11 10:49:44;;;;;;;10.52;5.07;;;18.10;99.90;;;;;;4952876;29;20038;-72
2021/10/11 10:52:17;;;;;;;11.50;4.32;;;18.20;99.90;;;;;;4953071;29;20555;-72
2021/10/11 10:54:44;;;;;;;13.55;4.97;;;18.30;99.90;;;;;;4936246;29;20051;-74
2021/10/11 10:57:13;;;;;;;9.32;5.20;;;18.50;99.90;;;;;;4954545;29;20027;-71
2021/10/11 10:59:40;;;;;;;14.20;5.53;;;18.60;99.90;;;;;;4953145;29;20035;-73
2021/10/11 11:02:09;;;;;;;8.93;4.88;;;18.80;99.90;;;;;;4951640;29;20496;-74
2021/10/11 11:04:36;;;;;;;9.73;4.35;;;18.80;99.90;;;;;;4953625;29;20050;-73
2021/10/11 11:07:05;;;;;;;10.23;5.18;;;18.60;99.90;;;;;;4953653;29;20031;-75
2021/10/11 11:09:45;;;;;;;22.15;5.78;;;18.50;99.90;;;;;;4953234;29;20035;-74
2021/10/11 11:12:12;;;;;;;9.57;5.03;;;18.20;99.90;;;;;;4952839;29;20035;-73
2021/10/11 11:14:42;;;;;;;10.23;4.68;;;18.10;99.90;;;;;;4952876;29;20050;-73
2021/10/11 11:17:13;;;;;;;13.10;4.85;;;18.10;99.90;;;;;;4953171;29;20514;-74
2021/10/11 11:19:41;;;;;;;9.27;4.93;;;18.10;99.90;;;;;;4950727;29;20392;-74
2021/10/11 11:22:06;;;;;;;9.30;4.40;;;18.00;99.90;;;;;;4952876;29;20035;-71
2021/10/11 11:24:33;;;;;;;15.60;5.35;;;17.80;99.90;;;;;;4952878;29;20027;-74
2021/10/11 11:27:02;;;;;;;9.88;5.13;;;17.60;99.90;;;;;;4934940;29;20125;-73
2021/10/11 11:29:28;;;;;;;16.00;4.45;;;17.60;99.90;;;;;;4947390;29;20449;-73
2021/10/11 11:31:54;;;;;;;15.00;5.28;;;17.50;99.90;;;;;;4933264;29;20043;-74
2021/10/11 11:34:20;;;;;;;13.43;5.32;;;17.50;99.90;;;;;;4951824;29;20040;-74
2021/10/11 11:36:50;;;;;;;8.98;5.00;;;17.40;99.90;;;;;;4952325;29;20480;-73
2021/10/11 11:39:15;;;;;;;9.02;4.40;;;17.40;99.90;;;;;;4944859;29;20127;-72
2021/10/11 11:41:53;;;;;;;13.90;4.22;;;17.50;99.90;;;;;;4941477;29;20476;-73
2021/10/11 11:44:26;;;;;;;11.35;4.80;;;17.50;99.90;;;;;;4948727;29;20408;-73
2021/10/11 11:47:01;;;;;;;10.52;5.45;;;17.40;99.90;;;;;;4950250;29;20054;-72
2021/10/11 11:49:26;;;;;;;10.20;4.80;;;17.30;99.90;;;;;;4932855;29;20064;-72
2021/10/11 11:52:04;;;;;;;15.10;5.07;;;17.20;99.90;;;;;;4930548;29;20039;-72
2021/10/11 11:54:29;;;;;;;10.10;5.07;;;17.20;99.90;;;;;;4949221;29;20036;-71
2021/10/11 11:56:55;;;;;;;11.43;5.18;;;17.30;99.90;;;;;;4947961;29;20404;-71
2021/10/11 11:59:21;;;;;;;10.80;5.00;;;17.30;99.90;;;;;;4942081;29;20102;-73
2021/10/11 12:01:47;;;;;;;9.05;5.00;;;17.40;99.90;;;;;;4953066;29;20027;-71
2021/10/11 12:04:13;;;;;;;10.40;5.00;;;17.40;99.90;;;;;;4943400;29;20040;-73
2021/10/11 12:06:40;;;;;;;6.97;4.43;;;17.30;99.90;;;;;;4952558;29;20077;-72
2021/10/11 12:09:06;;;;;;;12.45;4.50;;;17.20;99.90;;;;;;4949184;29;20061;-73
2021/10/11 12:11:32;;;;;;;11.18;4.65;;;17.10;99.90;;;;;;4945987;29;20065;-73
2021/10/11 12:13:59;;;;;;;11.25;4.38;;;17.20;99.90;;;;;;4934245;28;20079;-73
2021/10/11 12:16:27;;;;;;;8.82;4.65;;;17.30;99.90;;;;;;4942116;28;20110;-73
2021/10/11 12:18:54;;;;;;;6.95;4.78;;;17.30;99.90;;;;;;4935443;29;20050;-73
2021/10/11 12:21:20;;;;;;;12.45;5.55;;;17.40;99.90;;;;;;4944131;29;20027;-73
2021/10/11 12:23:46;;;;;;;9.88;4.90;;;17.50;99.90;;;;;;4948473;29;20027;-73
2021/10/11 12:26:12;;;;;;;10.15;4.80;;;17.50;99.90;;;;;;4950576;29;20086;-73
2021/10/11 12:28:55;;;;;;;9.65;5.05;;;17.50;99.90;;;;;;4949887;28;20031;-73
2021/10/11 12:31:24;;;;;;;9.38;5.00;;;17.30;99.90;;;;;;4933560;29;20042;-73
2021/10/11 12:33:51;;;;;;;8.90;4.13;;;17.20;99.90;;;;;;4938974;29;20054;-72
2021/10/11 12:36:18;;;;;;;7.25;4.00;;;17.20;99.90;;;;;;4952048;29;20365;-72
2021/10/11 12:38:44;;;;;;;7.80;4.22;;;17.30;99.90;;;;;;4952556;29;20031;-72
2021/10/11 12:41:16;;;;;;;11.30;5.60;;;17.50;99.90;;;;;;4952926;29;20043;-73